Time;durP1;ratioP1;P1;durP2;ratioP2;P2;SDS_P1;SDS_P2;PMS_P1;PMS_P2;Temp;Humidity;BMP_temperature;BMP_pressure;BME280_temperature;BME280_humidity;BME280_pressure;Samples;Min_cycle;Max_cycle;Signal;HPM_P1;HPM_P2
2021/03/02 00:08:29;;;;;;;;;;;3.90;99.90;;;2.62;76.71;96991.72;10280410;28;1898;-81
2021/03/02 00:13:47;;;;;;;;;;;3.60;99.90;;;2.68;76.04;96995.44;10280551;28;2013;-80
2021/03/02 00:19:03;;;;;;;;;;;3.70;99.90;;;2.59;76.73;96994.75;10295960;28;2115;-80
2021/03/02 00:24:06;;;;;;;;;;;4.40;99.90;;;2.48;76.83;96995.28;10293199;28;1922;-81
2021/03/02 00:29:08;;;;;;;;;;;3.60;99.90;;;2.48;77.48;96997.13;10289620;28;1995;-82
2021/03/02 00:34:10;;;;;;;;;;;3.50;99.90;;;2.33;78.11;96986.59;10287120;28;2278;-82
2021/03/02 00:39:12;;;;;;;;;;;3.50;99.90;;;2.34;78.43;97004.16;10299773;28;1979;-81
2021/03/02 00:44:14;;;;;;;;;;;3.40;99.90;;;2.35;78.21;97006.63;10298478;28;2017;-80
2021/03/02 00:49:16;;;;;;;;;;;5.30;99.90;;;2.23;79.30;96997.56;10309237;28;2048;-81
2021/03/02 00:54:18;;;;;;;;;;;3.40;99.90;;;2.19;79.50;97003.44;10297295;28;1862;-80
2021/03/02 00:59:20;;;;;;;;;;;3.50;99.90;;;2.20;79.35;97003.22;10292707;28;1945;-80
2021/03/02 01:04:22;;;;;;;;;;;5.00;99.90;;;2.09;80.12;96996.59;10290207;28;2148;-82
2021/03/02 01:09:28;;;;;;;;;;;3.20;99.90;;;2.03;80.34;96996.53;10296006;28;1925;-82
2021/03/02 01:14:30;;;;;;;;;;;3.20;99.90;;;2.07;80.37;96998.63;10278103;28;1997;-82
2021/03/02 01:19:32;;;;;;;;;;;3.20;99.90;;;1.93;80.75;96991.56;10278472;28;2012;-82
2021/03/02 01:24:34;;;;;;;;;;;3.10;99.90;;;1.85;81.20;96987.22;10291268;28;1988;-80
2021/03/02 01:29:36;;;;;;;;;;;3.00;99.90;;;1.88;81.52;96972.75;10273992;28;1929;-82
2021/03/02 01:34:37;;;;;;;;;;;3.00;99.90;;;1.90;81.88;96986.63;10269054;28;2025;-83
2021/03/02 01:39:40;;;;;;;;;;;2.90;99.90;;;1.87;82.12;96977.22;10269614;28;2071;-82
2021/03/02 01:44:41;;;;;;;;;;;3.20;99.90;;;1.87;82.20;96981.72;10283430;28;2027;-82
2021/03/02 01:49:43;;;;;;;;;;;2.90;99.90;;;1.81;82.45;96980.63;10279080;28;1949;-82
2021/03/02 01:54:45;;;;;;;;;;;2.90;99.90;;;1.71;83.07;96976.63;10285272;28;1973;-82
2021/03/02 01:59:47;;;;;;;;;;;2.80;99.90;;;1.67;83.22;96970.91;10312621;28;1981;-82
2021/03/02 02:04:49;;;;;;;;;;;5.10;99.90;;;1.63;83.37;96967.81;10293247;28;2010;-83
2021/03/02 02:09:50;;;;;;;;;;;4.30;99.90;;;1.54;83.73;96976.06;10266939;28;2124;-81
2021/03/02 02:14:52;;;;;;;;;;;2.60;99.90;;;1.35;84.37;96978.31;10283956;28;2067;-82
2021/03/02 02:19:54;;;;;;;;;;;3.60;99.90;;;1.43;84.36;96974.72;10266356;28;2081;-82
2021/03/02 02:24:56;;;;;;;;;;;2.50;99.90;;;1.32;85.02;96983.16;10270349;28;1973;-82
2021/03/02 02:29:58;;;;;;;;;;;2.80;99.90;;;1.27;85.17;96985.53;10276783;28;1918;-82
2021/03/02 02:35:00;;;;;;;;;;;2.40;99.90;;;1.12;85.41;96985.56;10275266;28;1985;-82
2021/03/02 02:40:05;;;;;;;;;;;3.90;99.90;;;1.10;85.98;96984.09;10270375;28;2022;-80
2021/03/02 02:45:07;;;;;;;;;;;2.40;99.90;;;1.18;86.17;96994.59;10270577;28;1994;-82
2021/03/02 02:50:09;;;;;;;;;;;2.30;99.90;;;1.23;85.72;96987.72;10284543;28;1998;-82
2021/03/02 02:55:11;;;;;;;;;;;3.00;99.90;;;1.21;85.80;96988.91;10283255;28;1962;-82
2021/03/02 03:00:13;;;;;;;;;;;3.70;99.90;;;1.17;85.85;96985.00;10273377;28;1985;-80
2021/03/02 03:05:20;;;;;;;;;;;2.20;99.90;;;1.06;86.49;96989.75;10305172;28;2200;-81
2021/03/02 03:10:22;;;;;;;;;;;2.20;99.90;;;0.99;86.29;96991.50;10281532;28;1970;-82
2021/03/02 03:15:24;;;;;;;;;;;2.90;99.90;;;0.99;86.49;96995.97;10278050;28;2027;-81
2021/03/02 03:20:26;;;;;;;;;;;3.50;99.90;;;1.05;86.45;96993.41;10286752;28;1895;-81
2021/03/02 03:25:32;;;;;;;;;;;2.60;99.90;;;0.98;86.56;96995.16;10298953;28;1890;-79
2021/03/02 03:30:33;;;;;;;;;;;2.00;99.90;;;0.89;86.64;96993.63;10292497;28;1803;-82
2021/03/02 03:35:35;;;;;;;;;;;2.60;99.90;;;0.81;87.07;96991.03;10290418;28;2040;-82
2021/03/02 03:40:37;;;;;;;;;;;2.00;99.90;;;0.79;87.13;96988.59;10269048;28;2067;-81
2021/03/02 03:45:40;;;;;;;;;;;1.90;99.90;;;0.73;87.13;96988.50;10277228;28;1941;-81
2021/03/02 03:50:42;;;;;;;;;;;2.70;99.90;;;0.60;87.61;96994.41;10287322;28;1996;-82
2021/03/02 03:55:45;;;;;;;;;;;1.80;99.90;;;0.58;88.06;96995.59;10287129;28;1949;-81
2021/03/02 04:00:47;;;;;;;;;;;1.70;99.90;;;0.64;88.02;96997.53;10283959;28;2047;-80
2021/03/02 04:05:49;;;;;;;;;;;1.70;99.90;;;0.64;88.08;97005.47;10273968;28;1960;-81
2021/03/02 04:10:50;;;;;;;;;;;1.70;99.90;;;0.58;87.93;96996.44;10282828;28;2088;-81
2021/03/02 04:21:44;;;;;;;;;;;1.60;99.90;;;0.36;88.25;97003.41;10252990;28;1891;-82
2021/03/02 04:26:47;;;;;;;;;;;1.50;99.90;;;0.38;89.23;97000.56;10293901;28;2068;-82
2021/03/02 04:31:50;;;;;;;;;;;1.40;99.90;;;0.34;89.55;97016.00;10297878;28;2134;-80
2021/03/02 04:36:53;;;;;;;;;;;1.40;99.90;;;0.29;nan;97013.06;10318055;28;1785;-81
2021/03/02 04:41:58;;;;;;;;;;;1.50;99.90;;;0.21;89.96;97013.13;10310126;28;2055;-81
2021/03/02 04:47:05;;;;;;;;;;;1.90;99.90;;;0.14;89.55;97018.31;10286688;28;1827;-81
2021/03/02 04:52:12;;;;;;;;;;;1.40;99.90;;;0.18;89.67;97016.94;10280428;28;2051;-82
2021/03/02 04:57:14;;;;;;;;;;;2.10;99.90;;;0.17;90.08;97022.41;10277104;28;1761;-81
2021/03/02 05:02:16;;;;;;;;;;;1.80;99.90;;;0.26;89.59;97019.53;10272252;28;1993;-82
2021/03/02 05:07:18;;;;;;;;;;;2.20;99.90;;;0.23;89.81;97019.06;10270279;28;2043;-81
2021/03/02 05:12:20;;;;;;;;;;;2.40;99.90;;;0.11;89.97;97023.13;10260255;28;2302;-81
2021/03/02 05:17:22;;;;;;;;;;;1.30;99.90;;;0.07;90.04;97024.50;10285054;28;2024;-82
2021/03/02 05:22:24;;;;;;;;;;;1.30;99.90;;;0.01;90.17;97027.84;10287023;28;2011;-80
2021/03/02 05:27:27;;;;;;;;;;;1.20;99.90;;;-0.03;89.85;97025.53;10282609;28;1863;-84
2021/03/02 05:32:29;;;;;;;;;;;1.20;99.90;;;-0.11;90.56;97028.25;10279874;28;2022;-82
2021/03/02 05:37:31;;;;;;;;;;;1.40;99.90;;;-0.16;90.08;97025.31;10287503;28;2017;-80
2021/03/02 05:42:33;;;;;;;;;;;1.30;99.90;;;-0.20;89.92;97039.84;10258711;28;2103;-82
2021/03/02 05:47:35;;;;;;;;;;;1.10;99.90;;;-0.13;90.83;97032.84;10272705;28;2007;-83
2021/03/02 05:52:38;;;;;;;;;;;1.00;99.90;;;-0.13;89.91;97034.69;10280343;28;1857;-82
2021/03/02 05:57:41;;;;;;;;;;;1.30;99.90;;;-0.13;89.94;97035.50;10277497;28;1981;-81
2021/03/02 06:02:43;;;;;;;;;;;1.60;99.90;;;-0.09;90.40;97031.53;10287774;28;1907;-80
2021/03/02 06:07:45;;;;;;;;;;;1.40;99.90;;;-0.08;90.22;97046.38;10279359;28;1954;-81
2021/03/02 06:12:47;;;;;;;;;;;2.70;99.90;;;-0.06;90.05;97057.63;10274415;28;1983;-80
2021/03/02 06:17:49;;;;;;;;;;;1.10;99.90;;;0.06;89.97;97047.44;10273975;28;1954;-81
2021/03/02 06:22:51;;;;;;;;;;;2.00;99.90;;;0.15;89.70;97048.22;10283548;28;1910;-81
2021/03/02 06:27:53;;;;;;;;;;;1.20;99.90;;;0.28;89.18;97047.63;10280312;28;1994;-81
2021/03/02 06:32:56;;;;;;;;;;;1.30;99.90;;;0.45;88.20;97055.25;10298722;28;1984;-80
2021/03/02 06:37:58;;;;;;;;;;;1.50;99.90;;;0.54;88.02;97056.81;10302382;28;2038;-81
2021/03/02 06:43:01;;;;;;;;;;;2.30;99.90;;;0.69;87.41;97056.81;10322314;28;1897;-80
2021/03/02 06:48:08;;;;;;;;;;;1.70;99.90;;;0.79;86.83;97061.88;10316533;28;2356;-79
2021/03/02 06:53:13;;;;;;;;;;;2.40;99.90;;;0.93;86.16;97073.47;10298040;28;2000;-79
2021/03/02 06:58:25;;;;;;;;;;;2.10;99.90;;;1.14;85.16;97083.34;10292477;28;1934;-80
2021/03/02 07:03:31;;;;;;;;;;;2.50;99.90;;;1.23;84.65;97083.09;10262797;28;1995;-81
2021/03/02 07:08:33;;;;;;;;;;;2.20;99.90;;;1.32;83.61;97083.81;10294882;28;2106;-81
2021/03/02 07:13:35;;;;;;;;;;;2.30;99.90;;;1.44;82.79;97090.28;10275987;28;2031;-84
2021/03/02 07:18:37;;;;;;;;;;;2.40;99.90;;;1.55;81.95;97097.78;10288017;28;1993;-83
2021/03/02 07:23:40;;;;;;;;;;;2.50;99.90;;;1.61;81.61;97094.41;10271008;28;1999;-81
2021/03/02 07:28:42;;;;;;;;;;;2.80;99.90;;;1.77;81.26;97087.22;10274583;28;2058;-81
2021/03/02 07:33:46;;;;;;;;;;;2.70;99.90;;;1.86;81.10;97091.44;10261623;28;1691;-81
2021/03/02 07:38:48;;;;;;;;;;;3.90;99.90;;;2.02;79.25;97091.19;10325408;23;2039;-81
2021/03/02 07:43:50;;;;;;;;;;;3.00;99.90;;;2.26;78.13;97094.50;10313544;28;1776;-81
2021/03/02 07:48:52;;;;;;;;;;;3.80;99.90;;;2.44;77.51;97105.50;10319705;28;1877;-81
2021/03/02 07:53:55;;;;;;;;;;;3.30;99.90;;;2.50;77.52;97101.28;10304195;28;1977;-81
2021/03/02 07:58:57;;;;;;;;;;;3.40;99.90;;;2.66;77.46;97109.78;10283512;28;2026;-81
2021/03/02 08:03:58;;;;;;;;;;;4.30;99.90;;;2.81;75.70;97104.41;10311399;28;1893;-82
2021/03/02 08:09:04;;;;;;;;;;;5.00;99.90;;;2.97;76.03;97100.63;10299771;28;1926;-80
2021/03/02 08:14:06;;;;;;;;;;;3.90;99.90;;;3.17;74.04;97098.94;10300225;28;2228;-81
2021/03/02 08:19:08;;;;;;;;;;;4.00;99.90;;;3.40;73.79;97111.16;10308460;28;1989;-81
2021/03/02 08:24:10;;;;;;;;;;;4.30;99.90;;;3.58;73.87;97106.16;10302947;28;2093;-83
2021/03/02 08:29:12;;;;;;;;;;;4.50;99.90;;;3.94;71.40;97105.06;10298858;28;1947;-81
2021/03/02 08:34:14;;;;;;;;;;;6.20;99.90;;;4.06;70.74;97103.47;10287663;28;2038;-82
2021/03/02 08:39:16;;;;;;;;;;;5.40;99.90;;;4.25;70.29;97104.56;10288444;28;2109;-81
2021/03/02 08:44:18;;;;;;;;;;;5.90;99.90;;;4.49;68.66;97106.66;10302324;28;1929;-82
2021/03/02 08:49:20;;;;;;;;;;;5.30;99.90;;;4.60;68.23;97108.72;10306681;28;1875;-79
2021/03/02 08:54:22;;;;;;;;;;;5.50;99.90;;;4.83;67.49;97110.16;10310128;28;1965;-80
2021/03/02 08:59:24;;;;;;;;;;;5.70;99.90;;;5.10;66.32;97103.81;10326105;28;2020;-82
2021/03/02 09:04:26;;;;;;;;;;;6.60;99.90;;;5.32;65.09;97108.91;10325956;28;2027;-83
2021/03/02 09:09:28;;;;;;;;;;;6.10;99.90;;;5.44;65.20;97104.59;10306640;28;1997;-82
2021/03/02 09:14:33;;;;;;;;;;;7.30;99.90;;;5.76;63.41;97102.03;10320647;28;1984;-82
2021/03/02 09:19:35;;;;;;;;;;;6.40;99.90;;;5.92;62.93;97106.94;10332341;28;1891;-82
2021/03/02 09:24:38;;;;;;;;;;;6.70;99.90;;;6.12;62.51;97106.88;10335278;28;2100;-81
2021/03/02 09:29:40;;;;;;;;;;;6.90;99.90;;;6.23;62.05;97111.50;10311240;28;1879;-83
2021/03/02 09:34:42;;;;;;;;;;;7.00;99.90;;;6.27;60.56;97115.41;10321699;28;1854;-82
2021/03/02 09:39:44;;;;;;;;;;;7.20;99.90;;;6.45;60.11;97106.69;10320356;28;2036;-84
2021/03/02 09:44:46;;;;;;;;;;;7.30;99.90;;;6.59;59.73;97108.22;10330034;28;1830;-81
2021/03/02 09:49:48;;;;;;;;;;;7.50;99.90;;;6.89;58.05;97108.44;10346397;28;2149;-80
2021/03/02 09:54:50;;;;;;;;;;;7.70;99.90;;;7.03;57.91;97104.63;10334039;28;2059;-83
2021/03/02 09:59:52;;;;;;;;;;;7.90;99.90;;;7.16;57.25;97113.56;10341016;28;2016;-80
2021/03/02 10:04:54;;;;;;;;;;;8.10;98.80;;;7.34;57.58;97110.13;10335521;28;1835;-81
2021/03/02 10:09:56;;;;;;;;;;;8.20;97.30;;;7.51;56.05;97114.69;10318300;28;2112;-81
2021/03/02 10:14:58;;;;;;;;;;;8.70;95.90;;;7.76;55.11;97119.13;10336338;28;1989;-82
2021/03/02 10:19:59;;;;;;;;;;;8.60;94.40;;;7.89;55.77;97121.69;10310510;28;2090;-85
2021/03/02 10:25:05;;;;;;;;;;;8.80;93.30;;;7.94;55.18;97127.19;10298648;28;2047;-85
2021/03/02 10:30:07;;;;;;;;;;;9.60;92.00;;;8.17;53.97;97125.69;10322464;28;1953;-80
2021/03/02 10:35:10;;;;;;;;;;;9.10;90.60;;;8.33;53.84;97119.69;10313065;28;1878;-83
2021/03/02 10:40:11;;;;;;;;;;;9.20;90.10;;;8.43;54.29;97125.38;10311971;28;2031;-84
2021/03/02 10:45:15;;;;;;;;;;;9.40;89.50;;;8.53;54.17;97119.47;10324806;28;2263;-85
2021/03/02 10:50:17;;;;;;;;;;;9.50;88.60;;;8.71;54.75;97121.25;10311242;28;2321;-84
2021/03/02 10:55:19;;;;;;;;;;;10.30;89.80;;;8.86;53.18;97124.34;10310597;28;2066;-84
2021/03/02 11:00:21;;;;;;;;;;;9.80;87.60;;;8.87;53.28;97120.63;10297417;28;2034;-85
2021/03/02 11:05:22;;;;;;;;;;;10.80;87.40;;;8.97;53.74;97104.81;10297474;28;2292;-83
2021/03/02 11:10:25;;;;;;;;;;;10.00;86.80;;;9.08;52.93;97114.72;10285176;28;2279;-85
2021/03/02 11:15:27;;;;;;;;;;;10.00;86.20;;;9.22;53.81;97112.63;10288700;28;2238;-84
2021/03/02 11:20:29;;;;;;;;;;;10.20;86.30;;;9.17;51.90;97107.97;10273314;28;2401;-86
2021/03/02 11:25:31;;;;;;;;;;;10.20;84.20;;;9.17;52.70;97105.28;10285366;28;2104;-86
2021/03/02 11:30:33;;;;;;;;;;;10.20;84.30;;;9.36;52.10;97094.44;10283577;28;2121;-85
2021/03/02 11:35:35;;;;;;;;;;;10.30;83.90;;;9.48;49.94;97095.28;10293780;28;2282;-87
2021/03/02 11:40:38;;;;;;;;;;;10.40;81.90;;;9.55;50.89;97095.16;10289697;28;2303;-86
2021/03/02 11:45:41;;;;;;;;;;;10.50;82.00;;;9.52;50.16;97084.88;10310357;28;1974;-87
2021/03/02 11:50:44;;;;;;;;;;;10.60;80.80;;;9.66;50.58;97089.75;10289008;28;2326;-84
2021/03/02 11:55:47;;;;;;;;;;;10.60;81.00;;;9.78;49.58;97078.19;10312652;28;2233;-83
2021/03/02 12:00:49;;;;;;;;;;;10.70;80.10;;;9.81;49.86;97075.03;10287502;28;1953;-85
2021/03/02 12:05:55;;;;;;;;;;;10.80;80.00;;;9.88;49.87;97064.97;10286242;28;1722;-85
2021/03/02 12:10:59;;;;;;;;;;;10.90;79.70;;;9.93;49.38;97060.53;10281309;28;2086;-83
2021/03/02 12:16:03;;;;;;;;;;;10.90;78.60;;;9.87;48.90;97063.34;10302563;28;2035;-84
2021/03/02 12:21:06;;;;;;;;;;;10.90;77.80;;;10.06;48.60;97056.75;10297391;28;2331;-82
2021/03/02 12:26:09;;;;;;;;;;;11.00;77.90;;;10.13;48.27;97052.06;10299782;28;1984;-84
2021/03/02 12:31:20;;;;;;;;;;;11.10;77.20;;;10.12;46.93;97047.72;10285266;28;2107;-82
2021/03/02 12:36:25;;;;;;;;;;;11.10;75.70;;;10.35;46.05;97046.03;10293491;28;2052;-81
2021/03/02 12:41:27;;;;;;;;;;;11.30;75.10;;;10.28;47.12;97035.41;10296626;28;2076;-81
2021/03/02 12:46:29;;;;;;;;;;;11.30;74.90;;;10.45;47.01;97040.84;10316613;28;1996;-83
2021/03/02 12:51:31;;;;;;;;;;;11.40;75.00;;;10.56;46.44;97037.28;10303804;28;1988;-82
2021/03/02 12:56:33;;;;;;;;;;;11.50;74.30;;;10.57;46.51;97033.53;10306322;28;2000;-82
2021/03/02 13:01:35;;;;;;;;;;;11.60;73.70;;;10.61;45.58;97029.28;10293473;28;2238;-81
2021/03/02 13:06:42;;;;;;;;;;;11.60;73.10;;;10.67;45.59;97028.31;10301962;28;2409;-81
2021/03/02 13:11:44;;;;;;;;;;;11.60;73.00;;;10.68;46.44;97018.38;10303463;28;2215;-81
2021/03/02 13:16:46;;;;;;;;;;;11.60;73.40;;;10.97;45.43;97021.81;10311171;28;1988;-81
2021/03/02 13:21:48;;;;;;;;;;;11.90;72.90;;;10.96;45.03;97025.56;10308172;28;1953;-81
2021/03/02 13:26:50;;;;;;;;;;;11.90;71.60;;;10.92;45.71;97013.66;10322572;28;1932;-83
2021/03/02 13:31:52;;;;;;;;;;;11.90;72.30;;;10.95;45.27;97018.56;10286645;28;1981;-82
2021/03/02 13:37:13;;;;;;;;;;;;;;;;;;;;;
2021/03/02 13:48:44;;;;;;;;;;;11.90;72.10;;;11.04;44.70;97007.13;10286838;28;1834;-83
2021/03/02 13:53:47;;;;;;;;;;;12.00;71.10;;;11.09;44.17;96998.31;10304520;28;2020;-84
2021/03/02 13:58:50;;;;;;;;;;;12.10;70.20;;;11.11;43.35;97001.56;10308329;28;2077;-84
2021/03/02 14:03:52;;;;;;;;;;;12.10;69.30;;;11.25;42.74;97002.84;10330310;28;1683;-81
2021/03/02 14:08:56;;;;;;;;;;;12.10;68.60;;;11.25;42.90;97002.84;10295503;28;2004;-83
2021/03/02 14:13:58;;;;;;;;;;;12.20;68.60;;;11.16;43.71;96992.75;10304316;28;1910;-83
2021/03/02 14:19:00;;;;;;;;;;;12.20;68.90;;;11.25;43.47;96992.06;10297218;28;1954;-84
2021/03/02 14:24:05;;;;;;;;;;;12.20;68.50;;;11.28;43.18;96996.16;10311277;28;1862;-84
2021/03/02 14:29:07;;;;;;;;;;;12.30;68.70;;;11.20;43.54;96997.41;10330748;28;1722;-83
2021/03/02 14:34:09;;;;;;;;;;;12.20;68.70;;;11.23;43.96;96990.69;10320056;28;2005;-85
2021/03/02 14:39:11;;;;;;;;;;;12.20;68.50;;;11.22;43.21;96981.81;10315704;28;2099;-85
2021/03/02 14:44:13;;;;;;;;;;;12.10;67.90;;;11.20;42.93;96983.94;10325120;28;1524;-84
2021/03/02 14:49:33;;;;;;;;;;;12.20;68.00;;;11.19;43.08;96976.09;10323320;28;1776;-85
2021/03/02 14:54:35;;;;;;;;;;;12.20;67.80;;;11.17;42.48;96976.34;10325429;28;2079;-84
2021/03/02 14:59:38;;;;;;;;;;;12.10;67.50;;;11.21;42.75;96974.81;10288629;28;2239;-84
2021/03/02 15:04:40;;;;;;;;;;;12.20;67.40;;;11.21;42.38;96980.19;10307114;28;2334;-82
2021/03/02 15:09:42;;;;;;;;;;;12.20;66.60;;;11.22;42.97;96979.13;10304199;28;1876;-84
2021/03/02 15:14:44;;;;;;;;;;;12.20;67.40;;;11.32;43.15;96971.19;10309096;28;1925;-83
2021/03/02 15:19:46;;;;;;;;;;;12.20;67.30;;;11.18;43.22;96972.59;10314395;28;1969;-82
2021/03/02 15:24:48;;;;;;;;;;;12.20;67.10;;;11.18;42.43;96975.28;10322782;28;1964;-82
2021/03/02 15:29:50;;;;;;;;;;;12.20;66.70;;;11.09;43.53;96976.78;10311609;28;1686;-86
2021/03/02 15:34:52;;;;;;;;;;;12.10;67.20;;;11.08;43.11;96975.16;10321974;28;1906;-85
2021/03/02 15:39:54;;;;;;;;;;;12.10;67.00;;;11.02;43.24;96976.16;10313907;28;2155;-84
2021/03/02 15:44:57;;;;;;;;;;;12.00;67.00;;;10.97;42.93;96973.38;10323235;28;1670;-83
2021/03/02 15:49:59;;;;;;;;;;;11.90;67.10;;;10.91;43.10;96971.69;10326106;28;1779;-82
2021/03/02 15:55:03;;;;;;;;;;;11.90;67.00;;;10.87;43.08;96978.59;10343256;28;1846;-83
2021/03/02 16:00:05;;;;;;;;;;;11.80;66.90;;;10.76;43.84;96978.47;10319860;28;1930;-84
2021/03/02 16:05:07;;;;;;;;;;;11.80;67.10;;;10.58;44.43;96978.69;10302299;28;2000;-84
2021/03/02 16:10:10;;;;;;;;;;;11.70;67.60;;;10.64;44.08;96975.03;10299331;28;2097;-86
2021/03/02 16:15:12;;;;;;;;;;;11.60;67.60;;;10.55;44.46;96982.66;10292083;28;2017;-82
2021/03/02 16:20:14;;;;;;;;;;;11.60;67.90;;;10.50;44.49;96981.78;10287865;28;2134;-83
2021/03/02 16:25:16;;;;;;;;;;;11.50;68.00;;;10.49;44.50;96982.81;10286572;28;2063;-85
2021/03/02 16:30:18;;;;;;;;;;;11.50;68.10;;;10.28;45.04;96987.84;10317983;28;1812;-85
2021/03/02 16:35:23;;;;;;;;;;;11.40;68.10;;;10.06;45.96;96984.22;10284105;28;2047;-85
2021/03/02 16:40:29;;;;;;;;;;;11.20;68.90;;;9.89;49.25;96984.16;10283723;28;2124;-84
2021/03/02 16:45:36;;;;;;;;;;;11.00;71.50;;;9.67;51.22;97000.13;10320526;28;2291;-81
2021/03/02 16:50:40;;;;;;;;;;;10.80;73.80;;;9.65;51.55;96996.00;10299788;28;1910;-84
2021/03/02 16:55:43;;;;;;;;;;;10.80;74.60;;;9.43;51.87;96999.34;10312978;28;2043;-85
2021/03/02 17:00:54;;;;;;;;;;;10.60;75.00;;;9.37;52.45;97004.84;10307929;28;2024;-86
2021/03/02 17:05:59;;;;;;;;;;;10.50;75.60;;;9.09;53.64;97009.03;10290104;28;1993;-87
2021/03/02 17:11:06;;;;;;;;;;;10.30;76.20;;;8.97;54.31;97013.63;10280972;28;2064;-81
2021/03/02 17:16:18;;;;;;;;;;;10.10;77.30;;;8.79;54.30;97014.53;10290598;28;2036;-85
2021/03/02 17:21:22;;;;;;;;;;;9.90;77.80;;;8.50;55.85;97018.09;10289076;28;2000;-82
2021/03/02 17:26:24;;;;;;;;;;;9.70;78.60;;;8.46;55.90;97023.09;10294405;28;2155;-84
2021/03/02 17:31:28;;;;;;;;;;;9.50;79.60;;;8.34;57.03;97024.91;10282864;28;2075;-86
2021/03/02 17:36:31;;;;;;;;;;;10.10;80.50;;;8.26;57.24;97028.69;10292052;28;2226;-83
2021/03/02 17:41:34;;;;;;;;;;;9.40;80.30;;;8.11;58.10;97031.78;10303638;28;2074;-82
2021/03/02 17:46:38;;;;;;;;;;;9.80;81.50;;;7.93;58.48;97031.84;10281245;28;2143;-85
2021/03/02 17:51:44;;;;;;;;;;;9.10;81.60;;;7.72;59.37;97037.66;10283774;28;2147;-84
2021/03/02 17:56:48;;;;;;;;;;;9.00;82.40;;;7.62;59.72;97048.06;10264425;28;2137;-85
2021/03/02 18:01:56;;;;;;;;;;;9.20;83.40;;;7.42;61.32;97053.66;10293969;28;1993;-85
2021/03/02 18:06:58;;;;;;;;;;;8.70;83.90;;;7.24;62.07;97051.75;10335686;28;2044;-84
2021/03/02 18:12:03;;;;;;;;;;;9.40;85.00;;;7.10;62.13;97055.63;10319655;28;2032;-84
2021/03/02 18:17:06;;;;;;;;;;;8.80;85.40;;;6.98;62.70;97055.50;10326878;28;1956;-84
2021/03/02 18:22:10;;;;;;;;;;;9.30;86.70;;;6.90;63.89;97050.44;10338215;28;1976;-83
2021/03/02 18:27:25;;;;;;;;;;;8.10;86.90;;;6.86;63.77;97043.88;10320442;28;2032;-86
2021/03/02 18:32:28;;;;;;;;;;;8.00;87.40;;;6.71;65.66;97046.91;10315803;28;2123;-87
2021/03/02 18:37:33;;;;;;;;;;;7.90;88.30;;;6.65;65.39;97053.13;10304815;28;2041;-86
2021/03/02 18:42:40;;;;;;;;;;;7.90;88.80;;;6.57;65.91;97061.41;10299051;28;1970;-84
2021/03/02 18:47:43;;;;;;;;;;;8.40;89.60;;;6.53;65.92;97060.19;10310326;28;1998;-84
2021/03/02 18:52:46;;;;;;;;;;;8.40;90.30;;;6.44;66.02;97059.63;10295232;28;2050;-85
2021/03/02 18:57:51;;;;;;;;;;;7.70;90.20;;;6.35;66.46;97056.38;10294532;28;2362;-85
2021/03/02 19:02:53;;;;;;;;;;;8.00;90.50;;;6.26;67.36;97048.88;10294009;28;2236;-84
2021/03/02 19:07:56;;;;;;;;;;;7.40;91.10;;;6.18;67.34;97057.97;10306784;28;2327;-84
2021/03/02 19:13:07;;;;;;;;;;;7.40;91.50;;;6.06;68.23;97040.97;10302491;28;2222;-83
2021/03/02 19:18:12;;;;;;;;;;;7.80;92.30;;;5.97;68.41;97056.41;10304116;28;2370;-84
2021/03/02 19:23:24;;;;;;;;;;;7.20;92.70;;;5.88;68.72;97047.81;10304990;28;2148;-83
2021/03/02 19:28:29;;;;;;;;;;;8.20;93.80;;;5.76;69.75;97049.50;10317166;28;2060;-84
2021/03/02 19:33:31;;;;;;;;;;;7.00;93.90;;;5.65;70.34;97052.81;10309204;28;2090;-84
2021/03/02 19:38:36;;;;;;;;;;;7.70;95.10;;;5.58;70.96;97052.03;10297748;28;2014;-86
2021/03/02 19:43:43;;;;;;;;;;;6.80;95.30;;;5.55;71.00;97055.13;10310984;28;2037;-84
2021/03/02 19:48:45;;;;;;;;;;;6.80;95.80;;;5.52;71.39;97056.34;10299107;28;2096;-82
2021/03/02 19:53:47;;;;;;;;;;;6.70;96.40;;;5.44;71.13;97056.59;10297266;28;2104;-86
2021/03/02 19:58:53;;;;;;;;;;;7.90;97.20;;;5.45;71.30;97047.56;10280521;28;2020;-84
2021/03/02 20:03:55;;;;;;;;;;;7.20;97.10;;;5.39;72.38;97054.53;10286268;28;2032;-86
2021/03/02 20:08:57;;;;;;;;;;;6.60;97.40;;;5.36;72.38;97049.63;10291705;28;2055;-85
2021/03/02 20:14:03;;;;;;;;;;;7.50;98.70;;;5.31;72.70;97052.09;10283422;28;2040;-86
2021/03/02 20:19:06;;;;;;;;;;;7.70;99.40;;;5.20;73.06;97057.25;10300541;28;2188;-85
2021/03/02 20:24:08;;;;;;;;;;;6.40;99.00;;;5.15;73.72;97055.19;10300803;28;2101;-84
2021/03/02 20:29:12;;;;;;;;;;;6.80;99.90;;;5.06;73.41;97056.47;10290621;28;2341;-87
2021/03/02 20:34:14;;;;;;;;;;;7.20;99.90;;;5.01;74.34;97066.91;10293853;28;2326;-86
2021/03/02 20:39:17;;;;;;;;;;;6.20;99.90;;;4.93;74.73;97059.97;10299030;28;2004;-86
2021/03/02 20:44:34;;;;;;;;;;;6.90;99.90;;;4.81;75.13;97067.75;10287478;28;2039;-85
2021/03/02 20:49:37;;;;;;;;;;;6.10;99.90;;;4.76;74.87;97070.19;10318776;28;2079;-84
2021/03/02 20:54:41;;;;;;;;;;;6.20;99.90;;;4.71;75.00;97062.03;10317615;28;2100;-84
2021/03/02 20:59:43;;;;;;;;;;;5.90;99.90;;;4.64;75.49;97071.84;10326535;28;1985;-84
2021/03/02 21:04:45;;;;;;;;;;;6.30;99.90;;;4.51;75.74;97062.00;10326075;28;2060;-87
2021/03/02 21:09:48;;;;;;;;;;;5.80;99.90;;;4.36;76.17;97064.03;10317916;28;2016;-85
2021/03/02 21:14:54;;;;;;;;;;;5.70;99.90;;;4.33;76.71;97065.28;10311195;28;2251;-84
2021/03/02 21:19:56;;;;;;;;;;;5.50;99.90;;;4.33;76.80;97072.44;10309320;28;1947;-85
2021/03/02 21:24:58;;;;;;;;;;;5.80;99.90;;;4.22;77.23;97062.38;10314403;28;2075;-87
2021/03/02 21:30:00;;;;;;;;;;;5.50;99.90;;;4.09;78.86;97068.50;10316040;28;2068;-84
2021/03/02 21:35:06;;;;;;;;;;;5.30;99.90;;;3.98;79.60;97067.22;10310531;28;2140;-85
2021/03/02 21:40:09;;;;;;;;;;;5.20;99.90;;;3.92;79.12;97070.69;10298647;28;2169;-84
2021/03/02 21:45:11;;;;;;;;;;;6.00;99.90;;;3.87;79.59;97066.97;10310513;28;2063;-85
2021/03/02 21:50:13;;;;;;;;;;;6.00;99.90;;;3.80;80.00;97069.63;10343489;28;1869;-84
2021/03/02 21:55:17;;;;;;;;;;;5.80;99.90;;;3.74;79.50;97070.41;10314253;28;1991;-83
2021/03/02 22:00:19;;;;;;;;;;;5.20;99.90;;;3.56;79.68;97072.78;10313029;28;1993;-85
2021/03/02 22:05:29;;;;;;;;;;;4.90;99.90;;;3.41;80.61;97072.91;10328442;28;1878;-86
2021/03/02 22:10:32;;;;;;;;;;;5.00;99.90;;;3.31;81.14;97075.94;10296130;28;2119;-85
2021/03/02 22:15:34;;;;;;;;;;;4.60;99.90;;;3.24;81.37;97075.06;10298255;28;1992;-84
2021/03/02 22:20:36;;;;;;;;;;;5.50;99.90;;;3.18;82.08;97079.34;10307279;28;2015;-84
2021/03/02 22:25:38;;;;;;;;;;;4.50;99.90;;;3.18;82.17;97076.69;10303228;28;1936;-83
2021/03/02 22:30:40;;;;;;;;;;;4.60;99.90;;;3.18;82.23;97079.34;10308185;28;2009;-84
2021/03/02 22:35:43;;;;;;;;;;;4.40;99.90;;;3.10;82.15;97083.97;10317425;28;2044;-85
2021/03/02 22:40:45;;;;;;;;;;;5.20;99.90;;;2.96;82.46;97075.09;10304719;28;1978;-85
2021/03/02 22:45:48;;;;;;;;;;;4.20;99.90;;;2.82;82.81;97070.72;10326990;28;1763;-84
2021/03/02 22:50:50;;;;;;;;;;;4.00;99.90;;;2.77;83.41;97070.47;10315219;28;1997;-83
2021/03/02 22:55:52;;;;;;;;;;;4.00;99.90;;;2.73;83.74;97075.31;10306170;28;1839;-81
2021/03/02 23:00:54;;;;;;;;;;;3.90;99.90;;;2.70;84.17;97070.41;10312522;28;1993;-84
2021/03/02 23:05:58;;;;;;;;;;;4.10;99.90;;;2.62;84.58;97066.06;10314057;28;1934;-85
2021/03/02 23:11:00;;;;;;;;;;;3.80;99.90;;;2.55;84.27;97065.19;10333766;28;1902;-83
2021/03/02 23:16:05;;;;;;;;;;;3.80;99.90;;;2.48;84.02;97069.59;10305940;28;1787;-85
2021/03/02 23:21:07;;;;;;;;;;;3.60;99.90;;;2.37;83.65;97068.28;10325971;28;1917;-85
2021/03/02 23:26:09;;;;;;;;;;;3.50;99.90;;;2.31;84.73;97074.38;10316783;28;1881;-85
2021/03/02 23:31:11;;;;;;;;;;;4.20;99.90;;;2.28;85.95;97063.28;10335239;28;2072;-84
2021/03/02 23:36:13;;;;;;;;;;;3.60;99.90;;;2.20;85.45;97055.47;10304486;28;1703;-86
2021/03/02 23:41:15;;;;;;;;;;;4.60;99.90;;;2.14;85.42;97059.69;10304125;28;2086;-84
2021/03/02 23:46:20;;;;;;;;;;;3.40;99.90;;;2.09;85.74;97052.28;10331903;28;1750;-84
2021/03/02 23:51:23;;;;;;;;;;;3.20;99.90;;;1.98;85.42;97057.31;10316544;28;1893;-83
2021/03/02 23:56:25;;;;;;;;;;;4.10;99.90;;;1.95;85.78;97050.53;10326520;28;1799;-83
